sensor_id;sensor_type;location;lat;lon;timestamp;P1;durP1;ratioP1;P2;durP2;ratioP2
22995;SDS011;11664;49.774;8.650;2023-01-05T00:01:13;4.18;;;3.97;;
22995;SDS011;11664;49.774;8.650;2023-01-05T00:03:39;7.75;;;7.15;;
22995;SDS011;11664;49.774;8.650;2023-01-05T00:06:08;11.52;;;10.93;;
22995;SDS011;11664;49.774;8.650;2023-01-05T00:08:34;7.38;;;6.90;;
22995;SDS011;11664;49.774;8.650;2023-01-05T00:11:06;8.07;;;7.68;;
22995;SDS011;11664;49.774;8.650;2023-01-05T00:13:53;7.18;;;6.80;;
22995;SDS011;11664;49.774;8.650;2023-01-05T00:16:38;6.20;;;5.90;;
22995;SDS011;11664;49.774;8.650;2023-01-05T00:19:22;6.15;;;5.85;;
22995;SDS011;11664;49.774;8.650;2023-01-05T00:22:10;4.28;;;4.03;;
22995;SDS011;11664;49.774;8.650;2023-01-05T00:25:01;4.07;;;3.78;;
22995;SDS011;11664;49.774;8.650;2023-01-05T00:27:27;5.07;;;4.78;;
22995;SDS011;11664;49.774;8.650;2023-01-05T00:29:53;3.95;;;3.75;;
22995;SDS011;11664;49.774;8.650;2023-01-05T00:32:20;3.95;;;3.75;;
22995;SDS011;11664;49.774;8.650;2023-01-05T00:34:46;4.60;;;4.40;;
22995;SDS011;11664;49.774;8.650;2023-01-05T00:37:12;4.40;;;4.20;;
22995;SDS011;11664;49.774;8.650;2023-01-05T00:39:38;5.15;;;4.95;;
22995;SDS011;11664;49.774;8.650;2023-01-05T00:42:04;5.05;;;4.75;;
22995;SDS011;11664;49.774;8.650;2023-01-05T00:44:30;8.02;;;7.43;;
22995;SDS011;11664;49.774;8.650;2023-01-05T00:46:56;7.43;;;7.03;;
22995;SDS011;11664;49.774;8.650;2023-01-05T00:49:22;6.03;;;5.72;;
22995;SDS011;11664;49.774;8.650;2023-01-05T00:51:48;6.45;;;6.10;;
22995;SDS011;11664;49.774;8.650;2023-01-05T00:54:14;7.88;;;4.20;;
22995;SDS011;11664;49.774;8.650;2023-01-05T00:56:40;4.35;;;4.15;;
22995;SDS011;11664;49.774;8.650;2023-01-05T00:59:06;5.55;;;5.30;;
22995;SDS011;11664;49.774;8.650;2023-01-05T01:01:32;9.52;;;9.07;;
22995;SDS011;11664;49.774;8.650;2023-01-05T01:03:58;5.70;;;5.35;;
22995;SDS011;11664;49.774;8.650;2023-01-05T01:06:24;4.70;;;4.50;;
22995;SDS011;11664;49.774;8.650;2023-01-05T01:08:50;6.10;;;5.80;;
22995;SDS011;11664;49.774;8.650;2023-01-05T01:11:16;5.40;;;5.18;;
22995;SDS011;11664;49.774;8.650;2023-01-05T01:13:43;5.80;;;5.53;;
22995;SDS011;11664;49.774;8.650;2023-01-05T01:16:13;4.68;;;4.38;;
22995;SDS011;11664;49.774;8.650;2023-01-05T01:18:39;5.80;;;4.15;;
22995;SDS011;11664;49.774;8.650;2023-01-05T01:21:06;4.82;;;4.63;;
22995;SDS011;11664;49.774;8.650;2023-01-05T01:23:32;4.03;;;3.83;;
22995;SDS011;11664;49.774;8.650;2023-01-05T01:25:58;5.97;;;5.72;;
22995;SDS011;11664;49.774;8.650;2023-01-05T01:28:28;7.75;;;7.38;;
22995;SDS011;11664;49.774;8.650;2023-01-05T01:30:54;5.05;;;4.85;;
22995;SDS011;11664;49.774;8.650;2023-01-05T01:33:21;4.20;;;4.00;;
22995;SDS011;11664;49.774;8.650;2023-01-05T01:35:47;3.72;;;3.53;;
22995;SDS011;11664;49.774;8.650;2023-01-05T01:38:13;6.65;;;6.35;;
22995;SDS011;11664;49.774;8.650;2023-01-05T01:40:40;4.93;;;4.72;;
22995;SDS011;11664;49.774;8.650;2023-01-05T01:43:13;6.55;;;6.25;;
22995;SDS011;11664;49.774;8.650;2023-01-05T01:45:39;4.47;;;4.28;;
22995;SDS011;11664;49.774;8.650;2023-01-05T01:48:06;9.48;;;9.05;;
22995;SDS011;11664;49.774;8.650;2023-01-05T01:50:37;11.13;;;10.63;;
22995;SDS011;11664;49.774;8.650;2023-01-05T01:53:07;5.82;;;5.57;;
22995;SDS011;11664;49.774;8.650;2023-01-05T01:55:34;6.45;;;6.18;;
22995;SDS011;11664;49.774;8.650;2023-01-05T01:58:00;6.63;;;6.32;;
22995;SDS011;11664;49.774;8.650;2023-01-05T02:00:27;11.98;;;11.40;;
22995;SDS011;11664;49.774;8.650;2023-01-05T02:02:54;6.70;;;6.40;;
22995;SDS011;11664;49.774;8.650;2023-01-05T02:05:25;8.68;;;8.27;;
22995;SDS011;11664;49.774;8.650;2023-01-05T02:07:53;9.38;;;8.82;;
22995;SDS011;11664;49.774;8.650;2023-01-05T02:10:21;5.10;;;4.90;;
22995;SDS011;11664;49.774;8.650;2023-01-05T02:13:00;3.92;;;3.75;;
22995;SDS011;11664;49.774;8.650;2023-01-05T02:26:35;6.13;;;5.82;;
22995;SDS011;11664;49.774;8.650;2023-01-05T02:29:12;10.75;;;10.27;;
22995;SDS011;11664;49.774;8.650;2023-01-05T02:31:43;6.22;;;5.93;;
22995;SDS011;11664;49.774;8.650;2023-01-05T02:34:28;3.90;;;3.75;;
22995;SDS011;11664;49.774;8.650;2023-01-05T02:36:57;6.40;;;6.10;;
22995;SDS011;11664;49.774;8.650;2023-01-05T02:39:30;5.80;;;5.53;;
22995;SDS011;11664;49.774;8.650;2023-01-05T02:42:09;8.63;;;8.23;;
22995;SDS011;11664;49.774;8.650;2023-01-05T02:44:36;7.10;;;6.78;;
22995;SDS011;11664;49.774;8.650;2023-01-05T02:47:04;8.30;;;7.85;;
22995;SDS011;11664;49.774;8.650;2023-01-05T02:49:31;12.35;;;11.73;;
22995;SDS011;11664;49.774;8.650;2023-01-05T02:51:57;17.67;;;16.77;;
22995;SDS011;11664;49.774;8.650;2023-01-05T02:54:26;17.08;;;16.17;;
22995;SDS011;11664;49.774;8.650;2023-01-05T02:56:57;17.25;;;16.40;;
22995;SDS011;11664;49.774;8.650;2023-01-05T02:59:26;17.42;;;16.27;;
22995;SDS011;11664;49.774;8.650;2023-01-05T03:01:58;13.32;;;12.73;;
22995;SDS011;11664;49.774;8.650;2023-01-05T03:06:57;13.60;;;12.77;;
22995;SDS011;11664;49.774;8.650;2023-01-05T03:09:24;19.00;;;17.85;;
22995;SDS011;11664;49.774;8.650;2023-01-05T03:17:52;9.18;;;8.70;;
22995;SDS011;11664;49.774;8.650;2023-01-05T03:20:26;7.80;;;7.05;;
22995;SDS011;11664;49.774;8.650;2023-01-05T03:22:54;5.10;;;4.75;;
22995;SDS011;11664;49.774;8.650;2023-01-05T03:25:40;12.50;;;11.80;;
22995;SDS011;11664;49.774;8.650;2023-01-05T03:28:26;13.10;;;11.75;;
22995;SDS011;11664;49.774;8.650;2023-01-05T03:34:01;12.35;;;11.68;;
22995;SDS011;11664;49.774;8.650;2023-01-05T03:36:48;18.60;;;10.85;;
22995;SDS011;11664;49.774;8.650;2023-01-05T03:39:15;9.93;;;8.52;;
22995;SDS011;11664;49.774;8.650;2023-01-05T03:41:41;10.18;;;8.07;;
22995;SDS011;11664;49.774;8.650;2023-01-05T03:44:07;8.40;;;7.72;;
22995;SDS011;11664;49.774;8.650;2023-01-05T03:46:33;9.13;;;6.20;;
22995;SDS011;11664;49.774;8.650;2023-01-05T03:49:00;6.20;;;4.90;;
22995;SDS011;11664;49.774;8.650;2023-01-05T03:51:26;9.20;;;8.63;;
22995;SDS011;11664;49.774;8.650;2023-01-05T03:53:51;7.28;;;6.97;;
22995;SDS011;11664;49.774;8.650;2023-01-05T03:56:17;7.82;;;7.43;;
22995;SDS011;11664;49.774;8.650;2023-01-05T03:58:43;6.50;;;6.05;;
22995;SDS011;11664;49.774;8.650;2023-01-05T04:01:09;6.15;;;5.65;;
22995;SDS011;11664;49.774;8.650;2023-01-05T04:03:35;4.63;;;4.35;;
22995;SDS011;11664;49.774;8.650;2023-01-05T04:06:02;4.68;;;4.28;;
22995;SDS011;11664;49.774;8.650;2023-01-05T04:08:29;3.50;;;3.30;;
22995;SDS011;11664;49.774;8.650;2023-01-05T04:10:55;4.03;;;3.67;;
22995;SDS011;11664;49.774;8.650;2023-01-05T04:13:21;12.88;;;5.78;;
22995;SDS011;11664;49.774;8.650;2023-01-05T04:15:47;4.68;;;4.28;;
22995;SDS011;11664;49.774;8.650;2023-01-05T04:18:13;4.07;;;3.72;;
22995;SDS011;11664;49.774;8.650;2023-01-05T04:20:39;6.53;;;4.25;;
22995;SDS011;11664;49.774;8.650;2023-01-05T04:23:05;6.30;;;4.30;;
22995;SDS011;11664;49.774;8.650;2023-01-05T04:25:31;6.45;;;4.22;;
22995;SDS011;11664;49.774;8.650;2023-01-05T04:27:57;10.65;;;5.20;;
22995;SDS011;11664;49.774;8.650;2023-01-05T04:30:23;4.47;;;3.40;;
22995;SDS011;11664;49.774;8.650;2023-01-05T04:32:49;4.85;;;4.45;;
22995;SDS011;11664;49.774;8.650;2023-01-05T04:35:15;6.32;;;5.78;;
22995;SDS011;11664;49.774;8.650;2023-01-05T04:37:41;10.55;;;4.97;;
22995;SDS011;11664;49.774;8.650;2023-01-05T04:40:07;10.70;;;5.57;;
22995;SDS011;11664;49.774;8.650;2023-01-05T04:42:33;4.72;;;4.32;;
22995;SDS011;11664;49.774;8.650;2023-01-05T04:44:59;5.03;;;4.65;;
22995;SDS011;11664;49.774;8.650;2023-01-05T04:47:25;6.38;;;5.63;;
22995;SDS011;11664;49.774;8.650;2023-01-05T04:49:51;6.32;;;4.95;;
22995;SDS011;11664;49.774;8.650;2023-01-05T04:52:17;6.68;;;4.78;;
22995;SDS011;11664;49.774;8.650;2023-01-05T04:54:43;9.38;;;3.92;;
22995;SDS011;11664;49.774;8.650;2023-01-05T04:57:09;9.60;;;4.70;;
22995;SDS011;11664;49.774;8.650;2023-01-05T04:59:35;9.48;;;3.92;;
22995;SDS011;11664;49.774;8.650;2023-01-05T05:02:01;9.07;;;4.18;;
22995;SDS011;11664;49.774;8.650;2023-01-05T05:04:27;5.63;;;3.85;;
22995;SDS011;11664;49.774;8.650;2023-01-05T05:06:53;4.95;;;4.57;;
22995;SDS011;11664;49.774;8.650;2023-01-05T05:09:19;7.20;;;4.35;;
22995;SDS011;11664;49.774;8.650;2023-01-05T05:11:45;5.82;;;4.43;;
22995;SDS011;11664;49.774;8.650;2023-01-05T05:14:11;7.60;;;3.80;;
22995;SDS011;11664;49.774;8.650;2023-01-05T05:16:37;4.90;;;3.67;;
22995;SDS011;11664;49.774;8.650;2023-01-05T05:19:03;8.93;;;3.80;;
22995;SDS011;11664;49.774;8.650;2023-01-05T05:21:29;7.68;;;4.03;;
22995;SDS011;11664;49.774;8.650;2023-01-05T05:23:55;6.75;;;3.40;;
22995;SDS011;11664;49.774;8.650;2023-01-05T05:26:21;6.82;;;3.60;;
22995;SDS011;11664;49.774;8.650;2023-01-05T05:28:47;9.05;;;3.75;;
22995;SDS011;11664;49.774;8.650;2023-01-05T05:31:13;3.13;;;2.92;;
22995;SDS011;11664;49.774;8.650;2023-01-05T05:33:39;4.47;;;3.20;;
22995;SDS011;11664;49.774;8.650;2023-01-05T05:36:05;10.98;;;4.10;;
22995;SDS011;11664;49.774;8.650;2023-01-05T05:38:31;4.03;;;3.70;;
22995;SDS011;11664;49.774;8.650;2023-01-05T05:40:57;7.10;;;3.97;;
22995;SDS011;11664;49.774;8.650;2023-01-05T05:43:23;3.95;;;3.33;;
22995;SDS011;11664;49.774;8.650;2023-01-05T05:45:49;3.55;;;3.20;;
22995;SDS011;11664;49.774;8.650;2023-01-05T05:48:15;4.55;;;3.30;;
22995;SDS011;11664;49.774;8.650;2023-01-05T05:50:42;7.13;;;3.80;;
22995;SDS011;11664;49.774;8.650;2023-01-05T05:53:08;15.02;;;5.25;;
22995;SDS011;11664;49.774;8.650;2023-01-05T05:55:34;7.85;;;4.18;;
22995;SDS011;11664;49.774;8.650;2023-01-05T05:58:00;8.68;;;4.00;;
22995;SDS011;11664;49.774;8.650;2023-01-05T06:00:26;4.50;;;4.05;;
22995;SDS011;11664;49.774;8.650;2023-01-05T06:02:52;6.40;;;3.75;;
22995;SDS011;11664;49.774;8.650;2023-01-05T06:05:18;4.43;;;4.03;;
22995;SDS011;11664;49.774;8.650;2023-01-05T06:07:44;8.85;;;5.35;;
22995;SDS011;11664;49.774;8.650;2023-01-05T06:10:10;7.43;;;4.72;;
22995;SDS011;11664;49.774;8.650;2023-01-05T06:12:36;9.85;;;4.60;;
22995;SDS011;11664;49.774;8.650;2023-01-05T06:15:03;8.82;;;4.93;;
22995;SDS011;11664;49.774;8.650;2023-01-05T06:17:29;5.13;;;4.63;;
22995;SDS011;11664;49.774;8.650;2023-01-05T06:19:55;9.10;;;4.40;;
22995;SDS011;11664;49.774;8.650;2023-01-05T06:22:20;8.02;;;5.70;;
22995;SDS011;11664;49.774;8.650;2023-01-05T06:24:46;7.95;;;5.65;;
22995;SDS011;11664;49.774;8.650;2023-01-05T06:27:12;5.22;;;4.70;;
22995;SDS011;11664;49.774;8.650;2023-01-05T06:29:38;5.00;;;4.40;;
22995;SDS011;11664;49.774;8.650;2023-01-05T06:32:04;4.80;;;3.88;;
22995;SDS011;11664;49.774;8.650;2023-01-05T06:34:30;9.02;;;4.07;;
22995;SDS011;11664;49.774;8.650;2023-01-05T06:36:56;5.95;;;3.72;;
22995;SDS011;11664;49.774;8.650;2023-01-05T06:39:22;5.15;;;3.38;;
22995;SDS011;11664;49.774;8.650;2023-01-05T06:41:48;7.82;;;4.60;;
22995;SDS011;11664;49.774;8.650;2023-01-05T06:44:14;7.60;;;3.63;;
22995;SDS011;11664;49.774;8.650;2023-01-05T06:46:40;12.98;;;5.28;;
22995;SDS011;11664;49.774;8.650;2023-01-05T06:49:09;4.80;;;4.10;;
22995;SDS011;11664;49.774;8.650;2023-01-05T06:51:36;8.32;;;4.60;;
22995;SDS011;11664;49.774;8.650;2023-01-05T06:54:04;6.85;;;4.18;;
22995;SDS011;11664;49.774;8.650;2023-01-05T06:56:30;8.45;;;3.88;;
22995;SDS011;11664;49.774;8.650;2023-01-05T06:58:56;4.22;;;3.90;;
22995;SDS011;11664;49.774;8.650;2023-01-05T07:01:22;7.07;;;3.88;;
22995;SDS011;11664;49.774;8.650;2023-01-05T07:03:48;3.60;;;3.30;;
22995;SDS011;11664;49.774;8.650;2023-01-05T07:06:14;3.95;;;3.65;;
22995;SDS011;11664;49.774;8.650;2023-01-05T07:08:40;11.32;;;4.72;;
22995;SDS011;11664;49.774;8.650;2023-01-05T07:11:06;4.57;;;4.22;;
22995;SDS011;11664;49.774;8.650;2023-01-05T07:13:32;3.78;;;3.47;;
22995;SDS011;11664;49.774;8.650;2023-01-05T07:15:58;8.95;;;4.25;;
22995;SDS011;11664;49.774;8.650;2023-01-05T07:18:24;3.92;;;3.42;;
22995;SDS011;11664;49.774;8.650;2023-01-05T07:20:50;4.53;;;3.65;;
22995;SDS011;11664;49.774;8.650;2023-01-05T07:23:16;10.57;;;3.70;;
22995;SDS011;11664;49.774;8.650;2023-01-05T07:25:42;9.05;;;4.18;;
22995;SDS011;11664;49.774;8.650;2023-01-05T07:28:08;3.42;;;3.13;;
22995;SDS011;11664;49.774;8.650;2023-01-05T07:30:34;4.15;;;3.20;;
22995;SDS011;11664;49.774;8.650;2023-01-05T07:33:00;6.50;;;4.03;;
22995;SDS011;11664;49.774;8.650;2023-01-05T07:35:26;4.53;;;3.40;;
22995;SDS011;11664;49.774;8.650;2023-01-05T07:37:56;8.10;;;3.40;;
22995;SDS011;11664;49.774;8.650;2023-01-05T07:40:22;10.43;;;3.22;;
22995;SDS011;11664;49.774;8.650;2023-01-05T07:42:49;6.35;;;3.90;;
22995;SDS011;11664;49.774;8.650;2023-01-05T07:45:15;3.35;;;3.10;;
22995;SDS011;11664;49.774;8.650;2023-01-05T07:47:41;8.57;;;4.18;;
22995;SDS011;11664;49.774;8.650;2023-01-05T07:50:07;4.93;;;3.45;;
22995;SDS011;11664;49.774;8.650;2023-01-05T07:52:33;4.35;;;4.03;;
22995;SDS011;11664;49.774;8.650;2023-01-05T07:54:59;4.70;;;3.80;;
22995;SDS011;11664;49.774;8.650;2023-01-05T07:57:25;6.00;;;4.13;;
22995;SDS011;11664;49.774;8.650;2023-01-05T07:59:51;7.47;;;4.97;;
22995;SDS011;11664;49.774;8.650;2023-01-05T08:02:17;4.07;;;3.38;;
22995;SDS011;11664;49.774;8.650;2023-01-05T08:04:43;4.85;;;3.50;;
22995;SDS011;11664;49.774;8.650;2023-01-05T08:07:09;7.25;;;3.97;;
22995;SDS011;11664;49.774;8.650;2023-01-05T08:09:38;3.63;;;3.33;;
22995;SDS011;11664;49.774;8.650;2023-01-05T08:12:22;7.95;;;3.92;;
22995;SDS011;11664;49.774;8.650;2023-01-05T08:14:48;9.52;;;4.57;;
22995;SDS011;11664;49.774;8.650;2023-01-05T08:17:14;8.10;;;4.13;;
22995;SDS011;11664;49.774;8.650;2023-01-05T08:19:40;4.13;;;3.72;;
22995;SDS011;11664;49.774;8.650;2023-01-05T08:22:06;13.32;;;3.60;;
22995;SDS011;11664;49.774;8.650;2023-01-05T08:24:32;4.55;;;3.95;;
22995;SDS011;11664;49.774;8.650;2023-01-05T08:26:58;9.48;;;3.67;;
22995;SDS011;11664;49.774;8.650;2023-01-05T08:29:24;8.57;;;4.30;;
22995;SDS011;11664;49.774;8.650;2023-01-05T08:31:50;7.80;;;4.43;;
22995;SDS011;11664;49.774;8.650;2023-01-05T08:34:16;10.13;;;4.05;;
22995;SDS011;11664;49.774;8.650;2023-01-05T08:36:42;7.20;;;3.58;;
22995;SDS011;11664;49.774;8.650;2023-01-05T08:39:09;6.50;;;3.67;;
22995;SDS011;11664;49.774;8.650;2023-01-05T08:41:36;7.88;;;3.95;;
22995;SDS011;11664;49.774;8.650;2023-01-05T08:44:06;12.57;;;4.20;;
22995;SDS011;11664;49.774;8.650;2023-01-05T08:46:33;7.18;;;3.97;;
22995;SDS011;11664;49.774;8.650;2023-01-05T08:49:00;15.50;;;4.10;;
22995;SDS011;11664;49.774;8.650;2023-01-05T08:51:26;5.63;;;3.90;;
22995;SDS011;11664;49.774;8.650;2023-01-05T08:53:53;6.60;;;3.70;;
22995;SDS011;11664;49.774;8.650;2023-01-05T08:56:19;7.50;;;3.83;;
22995;SDS011;11664;49.774;8.650;2023-01-05T08:58:45;5.22;;;3.58;;
22995;SDS011;11664;49.774;8.650;2023-01-05T09:01:13;7.22;;;3.90;;
22995;SDS011;11664;49.774;8.650;2023-01-05T09:03:39;3.92;;;3.63;;
22995;SDS011;11664;49.774;8.650;2023-01-05T09:06:05;7.85;;;4.68;;
22995;SDS011;11664;49.774;8.650;2023-01-05T09:08:33;6.45;;;3.97;;
22995;SDS011;11664;49.774;8.650;2023-01-05T09:11:10;5.05;;;3.80;;
22995;SDS011;11664;49.774;8.650;2023-01-05T09:13:36;7.43;;;4.40;;
22995;SDS011;11664;49.774;8.650;2023-01-05T09:16:06;4.18;;;3.72;;
22995;SDS011;11664;49.774;8.650;2023-01-05T09:18:33;6.00;;;4.05;;
22995;SDS011;11664;49.774;8.650;2023-01-05T09:20:59;4.40;;;3.33;;
22995;SDS011;11664;49.774;8.650;2023-01-05T09:23:25;3.92;;;3.63;;
22995;SDS011;11664;49.774;8.650;2023-01-05T09:25:51;3.85;;;3.55;;
22995;SDS011;11664;49.774;8.650;2023-01-05T09:28:17;7.82;;;3.67;;
22995;SDS011;11664;49.774;8.650;2023-01-05T09:30:43;4.65;;;3.33;;
22995;SDS011;11664;49.774;8.650;2023-01-05T09:33:09;5.63;;;5.20;;
22995;SDS011;11664;49.774;8.650;2023-01-05T09:35:35;9.18;;;5.28;;
22995;SDS011;11664;49.774;8.650;2023-01-05T09:38:01;3.95;;;3.65;;
22995;SDS011;11664;49.774;8.650;2023-01-05T09:40:27;9.70;;;3.58;;
22995;SDS011;11664;49.774;8.650;2023-01-05T09:42:53;3.45;;;3.22;;
22995;SDS011;11664;49.774;8.650;2023-01-05T09:45:23;3.72;;;3.42;;
22995;SDS011;11664;49.774;8.650;2023-01-05T09:47:49;3.88;;;3.55;;
22995;SDS011;11664;49.774;8.650;2023-01-05T09:50:17;14.65;;;4.13;;
22995;SDS011;11664;49.774;8.650;2023-01-05T09:52:44;6.18;;;3.70;;
22995;SDS011;11664;49.774;8.650;2023-01-05T09:55:16;4.10;;;3.38;;
22995;SDS011;11664;49.774;8.650;2023-01-05T09:57:45;4.75;;;3.78;;
22995;SDS011;11664;49.774;8.650;2023-01-05T10:00:14;7.00;;;3.55;;
22995;SDS011;11664;49.774;8.650;2023-01-05T10:02:57;6.25;;;3.45;;
22995;SDS011;11664;49.774;8.650;2023-01-05T10:05:24;4.25;;;3.80;;
22995;SDS011;11664;49.774;8.650;2023-01-05T10:10:20;5.63;;;4.20;;
22995;SDS011;11664;49.774;8.650;2023-01-05T10:12:50;4.57;;;3.30;;
22995;SDS011;11664;49.774;8.650;2023-01-05T10:15:42;4.68;;;3.72;;
22995;SDS011;11664;49.774;8.650;2023-01-05T10:18:30;5.63;;;3.67;;
22995;SDS011;11664;49.774;8.650;2023-01-05T10:21:00;3.78;;;3.28;;
22995;SDS011;11664;49.774;8.650;2023-01-05T10:25:54;4.03;;;3.13;;
22995;SDS011;11664;49.774;8.650;2023-01-05T10:28:25;6.13;;;3.95;;
22995;SDS011;11664;49.774;8.650;2023-01-05T10:30:56;9.85;;;4.47;;
22995;SDS011;11664;49.774;8.650;2023-01-05T10:46:51;5.50;;;3.67;;
22995;SDS011;11664;49.774;8.650;2023-01-05T10:49:18;9.85;;;3.63;;
22995;SDS011;11664;49.774;8.650;2023-01-05T10:51:45;9.45;;;3.83;;
22995;SDS011;11664;49.774;8.650;2023-01-05T10:54:25;3.50;;;3.10;;
22995;SDS011;11664;49.774;8.650;2023-01-05T10:56:54;5.50;;;3.40;;
22995;SDS011;11664;49.774;8.650;2023-01-05T10:59:20;5.35;;;3.70;;
22995;SDS011;11664;49.774;8.650;2023-01-05T11:01:46;5.57;;;3.15;;
22995;SDS011;11664;49.774;8.650;2023-01-05T11:06:39;13.48;;;3.63;;
22995;SDS011;11664;49.774;8.650;2023-01-05T11:09:21;6.00;;;3.47;;
22995;SDS011;11664;49.774;8.650;2023-01-05T11:11:58;7.38;;;4.28;;
22995;SDS011;11664;49.774;8.650;2023-01-05T11:14:24;11.35;;;3.97;;
22995;SDS011;11664;49.774;8.650;2023-01-05T11:16:52;9.57;;;3.60;;
22995;SDS011;11664;49.774;8.650;2023-01-05T11:19:24;6.55;;;3.42;;
22995;SDS011;11664;49.774;8.650;2023-01-05T11:21:51;9.63;;;3.13;;
22995;SDS011;11664;49.774;8.650;2023-01-05T11:26:50;6.57;;;3.33;;
22995;SDS011;11664;49.774;8.650;2023-01-05T11:29:16;4.15;;;3.13;;
22995;SDS011;11664;49.774;8.650;2023-01-05T11:31:45;5.55;;;3.67;;
22995;SDS011;11664;49.774;8.650;2023-01-05T11:34:23;9.00;;;3.40;;
22995;SDS011;11664;49.774;8.650;2023-01-05T11:36:54;9.60;;;5.15;;
22995;SDS011;11664;49.774;8.650;2023-01-05T11:39:28;8.68;;;4.18;;
22995;SDS011;11664;49.774;8.650;2023-01-05T11:42:06;11.80;;;3.90;;
22995;SDS011;11664;49.774;8.650;2023-01-05T11:44:32;6.50;;;3.40;;
22995;SDS011;11664;49.774;8.650;2023-01-05T11:46:58;7.25;;;3.60;;
22995;SDS011;11664;49.774;8.650;2023-01-05T11:49:24;5.53;;;4.00;;
22995;SDS011;11664;49.774;8.650;2023-01-05T11:51:50;7.43;;;4.28;;
22995;SDS011;11664;49.774;8.650;2023-01-05T11:54:33;7.57;;;3.88;;
22995;SDS011;11664;49.774;8.650;2023-01-05T11:57:05;7.47;;;4.32;;
22995;SDS011;11664;49.774;8.650;2023-01-05T12:02:00;8.15;;;5.10;;
22995;SDS011;11664;49.774;8.650;2023-01-05T12:07:23;8.05;;;3.13;;
22995;SDS011;11664;49.774;8.650;2023-01-05T12:09:56;11.18;;;3.80;;
22995;SDS011;11664;49.774;8.650;2023-01-05T12:26:14;7.72;;;4.03;;
22995;SDS011;11664;49.774;8.650;2023-01-05T12:43:44;9.43;;;3.72;;
22995;SDS011;11664;49.774;8.650;2023-01-05T12:48:58;3.80;;;3.50;;
22995;SDS011;11664;49.774;8.650;2023-01-05T12:53:58;13.85;;;3.35;;
22995;SDS011;11664;49.774;8.650;2023-01-05T12:56:27;7.97;;;3.88;;
22995;SDS011;11664;49.774;8.650;2023-01-05T13:01:58;6.28;;;3.53;;
22995;SDS011;11664;49.774;8.650;2023-01-05T13:04:42;5.00;;;3.75;;
22995;SDS011;11664;49.774;8.650;2023-01-05T13:07:16;7.80;;;4.25;;
22995;SDS011;11664;49.774;8.650;2023-01-05T13:09:45;5.80;;;3.85;;
22995;SDS011;11664;49.774;8.650;2023-01-05T13:12:14;5.80;;;3.72;;
22995;SDS011;11664;49.774;8.650;2023-01-05T13:14:41;4.60;;;3.50;;
22995;SDS011;11664;49.774;8.650;2023-01-05T13:17:21;14.18;;;4.30;;
22995;SDS011;11664;49.774;8.650;2023-01-05T13:19:49;7.35;;;3.83;;
22995;SDS011;11664;49.774;8.650;2023-01-05T13:22:18;5.07;;;3.40;;
22995;SDS011;11664;49.774;8.650;2023-01-05T13:25:49;11.93;;;3.70;;
22995;SDS011;11664;49.774;8.650;2023-01-05T13:27:42;7.25;;;3.65;;
22995;SDS011;11664;49.774;8.650;2023-01-05T13:30:11;3.83;;;3.15;;
22995;SDS011;11664;49.774;8.650;2023-01-05T13:32:58;3.67;;;3.38;;
22995;SDS011;11664;49.774;8.650;2023-01-05T13:46:37;7.63;;;4.05;;
22995;SDS011;11664;49.774;8.650;2023-01-05T13:51:53;8.43;;;3.30;;
22995;SDS011;11664;49.774;8.650;2023-01-05T13:54:34;3.55;;;3.25;;
22995;SDS011;11664;49.774;8.650;2023-01-05T13:57:13;5.13;;;3.35;;
22995;SDS011;11664;49.774;8.650;2023-01-05T13:59:39;6.80;;;3.90;;
22995;SDS011;11664;49.774;8.650;2023-01-05T14:02:24;8.38;;;4.20;;
22995;SDS011;11664;49.774;8.650;2023-01-05T14:04:50;9.07;;;3.92;;
22995;SDS011;11664;49.774;8.650;2023-01-05T14:07:16;9.18;;;3.15;;
22995;SDS011;11664;49.774;8.650;2023-01-05T14:12:42;7.30;;;3.45;;
22995;SDS011;11664;49.774;8.650;2023-01-05T14:17:55;9.05;;;4.13;;
22995;SDS011;11664;49.774;8.650;2023-01-05T14:28:22;6.07;;;4.28;;
22995;SDS011;11664;49.774;8.650;2023-01-05T14:34:02;7.80;;;3.65;;
22995;SDS011;11664;49.774;8.650;2023-01-05T14:38:54;11.88;;;4.20;;
22995;SDS011;11664;49.774;8.650;2023-01-05T14:41:22;9.73;;;4.22;;
22995;SDS011;11664;49.774;8.650;2023-01-05T14:44:02;12.13;;;4.53;;
22995;SDS011;11664;49.774;8.650;2023-01-05T14:46:41;7.43;;;4.03;;
22995;SDS011;11664;49.774;8.650;2023-01-05T14:49:08;12.30;;;3.75;;
22995;SDS011;11664;49.774;8.650;2023-01-05T14:51:50;3.97;;;3.47;;
22995;SDS011;11664;49.774;8.650;2023-01-05T14:54:17;9.40;;;3.97;;
22995;SDS011;11664;49.774;8.650;2023-01-05T14:59:43;13.07;;;4.03;;
22995;SDS011;11664;49.774;8.650;2023-01-05T15:02:13;11.13;;;3.95;;
22995;SDS011;11664;49.774;8.650;2023-01-05T15:04:41;4.87;;;3.67;;
22995;SDS011;11664;49.774;8.650;2023-01-05T15:20:30;11.10;;;4.05;;
22995;SDS011;11664;49.774;8.650;2023-01-05T15:25:56;3.90;;;3.58;;
22995;SDS011;11664;49.774;8.650;2023-01-05T15:31:13;17.90;;;3.88;;
22995;SDS011;11664;49.774;8.650;2023-01-05T15:36:33;8.23;;;3.28;;
22995;SDS011;11664;49.774;8.650;2023-01-05T15:39:09;9.13;;;3.75;;
22995;SDS011;11664;49.774;8.650;2023-01-05T15:41:46;13.32;;;4.05;;
22995;SDS011;11664;49.774;8.650;2023-01-05T15:44:16;8.55;;;3.65;;
22995;SDS011;11664;49.774;8.650;2023-01-05T15:46:43;6.75;;;4.07;;
22995;SDS011;11664;49.774;8.650;2023-01-05T15:49:16;10.07;;;4.00;;
22995;SDS011;11664;49.774;8.650;2023-01-05T15:51:48;10.20;;;4.35;;
22995;SDS011;11664;49.774;8.650;2023-01-05T15:54:18;9.50;;;3.83;;
22995;SDS011;11664;49.774;8.650;2023-01-05T15:56:45;9.02;;;4.45;;
22995;SDS011;11664;49.774;8.650;2023-01-05T15:59:22;8.23;;;5.00;;
22995;SDS011;11664;49.774;8.650;2023-01-05T16:01:48;8.10;;;5.25;;
22995;SDS011;11664;49.774;8.650;2023-01-05T16:04:14;19.90;;;5.60;;
22995;SDS011;11664;49.774;8.650;2023-01-05T16:06:42;16.52;;;5.40;;
22995;SDS011;11664;49.774;8.650;2023-01-05T16:11:44;19.30;;;5.18;;
22995;SDS011;11664;49.774;8.650;2023-01-05T16:14:14;8.05;;;3.70;;
22995;SDS011;11664;49.774;8.650;2023-01-05T16:16:44;9.30;;;5.15;;
22995;SDS011;11664;49.774;8.650;2023-01-05T16:19:25;8.20;;;4.55;;
22995;SDS011;11664;49.774;8.650;2023-01-05T16:22:27;5.32;;;3.80;;
22995;SDS011;11664;49.774;8.650;2023-01-05T16:27:16;7.93;;;4.03;;
22995;SDS011;11664;49.774;8.650;2023-01-05T16:29:44;6.18;;;4.00;;
22995;SDS011;11664;49.774;8.650;2023-01-05T16:37:40;12.07;;;4.22;;
22995;SDS011;11664;49.774;8.650;2023-01-05T16:40:17;7.82;;;4.00;;
22995;SDS011;11664;49.774;8.650;2023-01-05T16:42:44;16.05;;;4.72;;
22995;SDS011;11664;49.774;8.650;2023-01-05T16:45:16;4.07;;;3.78;;
22995;SDS011;11664;49.774;8.650;2023-01-05T16:47:43;5.40;;;3.70;;
22995;SDS011;11664;49.774;8.650;2023-01-05T16:52:54;7.75;;;4.18;;
22995;SDS011;11664;49.774;8.650;2023-01-05T16:57:47;6.00;;;5.45;;
22995;SDS011;11664;49.774;8.650;2023-01-05T17:02:55;9.43;;;6.28;;
22995;SDS011;11664;49.774;8.650;2023-01-05T17:05:28;6.80;;;5.13;;
22995;SDS011;11664;49.774;8.650;2023-01-05T17:10:24;10.73;;;4.80;;
22995;SDS011;11664;49.774;8.650;2023-01-05T17:12:54;4.93;;;4.47;;
22995;SDS011;11664;49.774;8.650;2023-01-05T17:15:22;4.68;;;4.28;;
22995;SDS011;11664;49.774;8.650;2023-01-05T17:17:49;9.27;;;4.40;;
22995;SDS011;11664;49.774;8.650;2023-01-05T17:20:18;9.40;;;5.03;;
22995;SDS011;11664;49.774;8.650;2023-01-05T17:22:44;10.05;;;4.97;;
22995;SDS011;11664;49.774;8.650;2023-01-05T17:25:13;5.45;;;4.00;;
22995;SDS011;11664;49.774;8.650;2023-01-05T17:27:39;13.02;;;5.80;;
22995;SDS011;11664;49.774;8.650;2023-01-05T17:30:14;9.30;;;4.30;;
22995;SDS011;11664;49.774;8.650;2023-01-05T17:32:41;6.43;;;4.55;;
22995;SDS011;11664;49.774;8.650;2023-01-05T17:35:07;6.03;;;5.13;;
22995;SDS011;11664;49.774;8.650;2023-01-05T17:37:33;4.80;;;4.40;;
22995;SDS011;11664;49.774;8.650;2023-01-05T17:39:59;8.43;;;4.45;;
22995;SDS011;11664;49.774;8.650;2023-01-05T17:42:25;8.32;;;4.88;;